Aérodrome :
LOGIN :

S'inscrire | Disclaimer

   EN    FR    IT 

 










Légende :    VFR   VFR Marginal   IFR   IFR Intensif   IFR Très Intensif
Visi : 
Plafond : 
>= 8 km
>= 3000ft
5 à 8 km
1000 à 3000 ft
1500m à 5 km
500 à 1000 ft
800 à 1500m
200 à 500 ft
< 800m
< 200 ft
Symboles :   Orages  Brouillard  Fortes neiges  Fortes précipitations  Vent > 20 kt
SIGMETs :   Divers  Orages  Givrage  Turbulence  Onde Orograph.  Cendres Volcan.







- Altitude de l'aérodrome : 290 ft
- Code IATA : LAI
- Voir les cartes d'approche


LFRO - Lannion

DERNIER METAR :
  • 192200Z AUTO 15003KT 130V190 CAVOK 12/10 Q1024

METARs EXPIRÉS :
  • 192130Z AUTO 18004KT CAVOK 12/11 Q1024
  • 192100Z AUTO 18003KT 9999 FEW048 12/11 Q1024
  • 192030Z AUTO 20004KT 160V230 9999 FEW044 13/10 Q1024
  • 192000Z AUTO 21004KT 180V250 9999 FEW021 OVC040 14/11 Q1024 NOSIG
  • 191930Z AUTO VRB01KT 9999 FEW024 OVC042 14/11 Q1024 NOSIG
  • 191900Z AUTO 28004KT 9999 OVC041 14/11 Q1024 NOSIG

TAF TAF LFRO
Valide du 19 à 12h jusqu'au 20 à 12h UTC


191100Z 1912/2012 24008KT 9999 SCT015 BKN020
Pas de NOTAMs connus pour ce terrain.



MET'MAP, la Météo Aéronautique d'un coup d'oeil ! - Copyright ORBIFLY Décembre 2007 - Disclaimer

ORBIFLY MET'MAP TEAM :

Programmation & Développement : Alexandra Zaïnal
Conception & Développement : Baudouin d'Aumeries
Co-Programmation & Développement : Marc-Olivier Méhu
Soutien technique & logistique : Manuel Goepfert

Contact : metmap@orbifly.com




SOURCES & CREDITS :

   NOAA